Weather observations for the past three days for
Hayward, Hayward Air Terminal
Metric (Imperial)
Date Time (pdt) Wind (kph) Vis. (km) Weather Sky Cond. Temperature (ºC) Relative Humidity Wind Chill (°C) Heat Index (°C) Pressure Precipitation (cm)
Air Dwpt 6 hour altimeter (cm) sea level (mb) 1 hr 3 hr 6 hr
Max. Min.
02 15:54 W 24 16.09 Partly Cloudy FEW020 SCT028 15.6 9.4 67% 75.97 1013.8
02 14:54 W 19 16.09 Overcast OVC027 15.6 10 70% 76.02 1014.4
02 13:54 W 19 16.09 Overcast SCT019 OVC025 16.1 10.6 70% 76.05 1014.8
02 12:54 W 17 16.09 Overcast SCT016 OVC024 15.6 10.6 72% 76.1 1015.3
02 11:54 W 17 16.09 Overcast SCT014 OVC022 15 10.6 75% 76.1 1015.4
02 10:54 W 20 16.09 Overcast OVC018 14.4 10.6 14.4 12.8 78% 76.1 1015.3
02 09:54 W 11 16.09 Overcast OVC015 13.9 10.6 81% 76.07 1015.2
02 08:54 W 13 16.09 Overcast OVC016 13.9 10.6 81% 76.05 1014.9
02 07:54 W 13 16.09 Overcast OVC014 13.3 10 81% 76.02 1014.5
02 06:54 SW 13 16.09 Overcast OVC013 13.3 10 81% 76 1014.2
02 05:54 W 13 16.09 Overcast OVC012 13.3 10 81% 75.97 1013.7
02 04:54 W 9 16.09 Overcast OVC014 12.8 10 13.3 12.8 83% 75.97 1013.8
02 03:54 W 11 16.09 Overcast OVC012 12.8 10 83% 75.97 1013.8
02 02:54 W 9 16.09 Overcast OVC012 13.3 10 81% 76 1014.2
02 01:54 W 13 16.09 Overcast OVC012 13.3 10 81% 76.05 1014.7
02 00:54 W 19 14.48 Overcast OVC010 12.8 10.6 87% 76.07 1015.0
01 23:54 W 13 16.09 Overcast OVC010 12.8 10.6 87% 76.07 1015.0
01 22:54 W 15 16.09 Overcast OVC011 13.3 10.6 17.2 13.3 84% 76.07 1015.3
01 21:54 W 9 16.09 Overcast OVC011 13.3 10.6 84% 76.07 1015.2
01 20:54 W 13 16.09 Overcast OVC011 13.3 11.1 87% 76.02 1014.5
01 19:54 W 17 16.09 Mostly Cloudy BKN012 13.9 11.1 83% 76 1014.1
01 18:54 W 19 16.09 Partly Cloudy SCT014 15 11.1 78% 76 1014.0
01 17:54 NW 22 G 41 16.09 Fair CLR 16.7 11.7 73% 75.97 1014.0
01 16:54 NW 22 G 41 16.09 Fair CLR 17.2 11.1 18.3 13.9 68% 76 1014.0
01 15:54 W 20 G 41 16.09 Fair CLR 17.8 11.7 68% 76.02 1014.5
01 14:54 NW 20 G 31 16.09 Fair CLR 17.8 12.2 70% 76.1 1015.3
01 13:54 W 19 G 30 16.09 Fair CLR 17.2 11.7 70% 76.12 1015.9
01 12:54 W 15 16.09 Partly Cloudy SCT014 16.1 11.7 75% 76.17 1016.4
01 11:54 NW 17 16.09 Mostly Cloudy FEW013 BKN015 15 11.1 78% 76.2 1017.0
01 10:54 W 19 16.09 Overcast OVC010 14.4 11.1 14.4 12.8 81% 76.23 1017.3
01 09:54 W 11 16.09 Overcast OVC014 13.9 10 78% 76.23 1017.1
01 08:54 W 11 16.09 Overcast OVC014 13.3 10 81% 76.2 1016.7
01 07:54 SW 9 16.09 Overcast OVC013 12.8 10 83% 76.15 1016.3
01 06:54 S 7 16.09 Overcast OVC012 12.8 10 83% 76.12 1015.9
01 05:54 W 7 16.09 Overcast OVC012 12.8 10 83% 76.1 1015.5
01 04:54 W 11 16.09 Overcast OVC011 12.8 10 12.8 12.8 83% 76.1 1015.4
01 03:54 W 15 14.48 Overcast OVC012 12.8 10.6 87% 76.1 1015.4
01 02:54 W 13 14.48 Overcast OVC010 12.8 10.6 87% 76.1 1015.3
01 01:54 W 11 16.09 Overcast OVC012 12.8 10 83% 76.12 1015.7
01 00:54 W 13 14.48 Mostly Cloudy BKN013 12.8 10.6 87% 76.15 1016.1
30 23:54 W 9 14.48 Overcast OVC011 12.8 10.6 87% 76.15 1016.1
30 22:54 W 15 16.09 Mostly Cloudy BKN011 12.8 10.6 17.2 12.8 87% 76.15 1016.1
30 21:54 W 15 14.48 Overcast OVC012 13.3 10.6 84% 76.12 1015.9
30 20:54 W 13 16.09 Overcast OVC012 13.3 10.6 84% 76.1 1015.5
30 19:54 NW 15 14.48 A Few Clouds FEW009 13.3 10 81% 76.05 1015.0
30 18:54 NW 20 16.09 Fair CLR 15 10.6 75% 76.05 1014.7
30 17:54 NW 22 16.09 Fair CLR 16.7 11.1 70% 76.05 1014.7
30 16:54 W 20 G 37 16.09 Fair CLR 17.2 11.7 19.4 15.6 70% 76.02 1014.5
30 15:54 W 20 G 43 16.09 Fair CLR 18.3 11.7 66% 76.05 1014.8
30 14:54 W 22 G 39 16.09 Fair CLR 18.3 10.6 61% 76.07 1015.2
30 13:54 W 22 G 39 16.09 Fair CLR 18.9 11.1 61% 76.1 1015.5
30 12:54 Calm 16.09 Fair CLR 17.8 11.1 65% 76.12 1015.9
30 11:54 W 13 16.09 Fair CLR 16.1 10.6 70% 76.17 1016.6
30 10:54 Vrbl 9 14.48 Partly Cloudy SCT016 15.6 10.6 15.6 11.1 72% 76.2 1016.9
30 09:54 Calm 14.48 Partly Cloudy SCT016 14.4 10 75% 76.2 1016.9
30 08:54 S 6 16.09 Mostly Cloudy BKN016 13.9 10 78% 76.2 1016.9
30 07:54 SW 7 16.09 Partly Cloudy SCT014 12.8 9.4 80% 76.2 1016.7
30 06:54 Calm 12.87 Overcast OVC013 11.7 9.4 86% 76.17 1016.3
30 05:54 Calm 14.48 Partly Cloudy SCT012 11.1 9.4 89% 76.17 1016.4
30 04:54 W 6 14.48 Fair CLR 12.2 10 13.3 11.7 87% 76.15 1016.3
30 03:54 W 11 14.48 A Few Clouds FEW011 12.2 10 87% 76.17 1016.4
30 02:54 SW 6 12.87 Partly Cloudy SCT011 12.2 10 87% 76.17 1016.5
30 01:54 W 11 14.48 Mostly Cloudy BKN012 12.2 10 87% 76.25 1017.4
30 00:54 W 15 14.48 Fair CLR 12.8 10 83% 76.28 1017.7
29 23:54 W 9 16.09 A Few Clouds FEW012 13.3 10 81% 76.3 1017.9
29 22:54 W 11 14.48 Fair CLR 13.3 10.6 18.3 13.3 84% 76.28 1018.0
29 21:54 W 13 16.09 Fair CLR 13.9 10.6 81% 76.28 1018.0
29 20:54 W 17 14.48 Fair CLR 13.9 10.6 81% 76.25 1017.7
29 19:54 W 19 16.09 Fair CLR 14.4 10.6 78% 76.23 1017.2
29 18:54 W 20 16.09 Fair CLR 16.1 10 67% 76.23 1017.3
29 17:54 W 22 16.09 Fair CLR 17.2 10.6 65% 76.23 1017.3
29 16:54 W 24 G 44 16.09 Fair CLR 18.3 10.6 20.6 17.2 61% 76.25 1017.4
Date Time (pdt) Wind (kph) Vis. (km) Weather Sky Cond. Air Dwpt Max. Min. Relative Humidity Wind Chill (°C) Heat Index (°C) altimeter (cm) sea level (mb) 1 hr 3 hr 6 hr
6 hour
Temperature (ºC) Pressure Precipitation (cm)